Time;durP1;ratioP1;P1;durP2;ratioP2;P2;SDS_P1;SDS_P2;PMS_P1;PMS_P2;Temp;Humidity;BMP_temperature;BMP_pressure;BME280_temperature;BME280_humidity;BME280_pressure;Samples;Min_cycle;Max_cycle;Signal;HPM_P1;HPM_P2
2021/06/24 00:02:15;;;;;;;15.40;4.05;;;;;;;25.46;48.48;100419.50;5032594;28;20133;-66
2021/06/24 00:04:42;;;;;;;7.30;3.70;;;;;;;25.37;48.67;100423.16;5031962;28;20037;-66
2021/06/24 00:07:09;;;;;;;9.68;3.80;;;;;;;25.42;48.48;100415.47;5033135;28;20076;-66
2021/06/24 00:09:36;;;;;;;8.57;4.78;;;;;;;25.49;48.12;100416.47;5033341;28;20064;-66
2021/06/24 00:12:03;;;;;;;8.32;3.75;;;;;;;25.47;48.36;100412.31;5033533;28;20423;-66
2021/06/24 00:14:30;;;;;;;14.02;3.90;;;;;;;25.41;48.30;100412.97;5033298;28;20459;-65
2021/06/24 00:16:57;;;;;;;10.15;3.95;;;;;;;25.43;48.33;100413.66;5032632;28;20038;-66
2021/06/24 00:19:24;;;;;;;7.75;4.30;;;;;;;25.41;48.51;100405.81;5032574;28;20072;-66
2021/06/24 00:21:51;;;;;;;5.25;3.58;;;;;;;25.41;48.83;100411.16;5032726;28;20033;-66
2021/06/24 00:24:18;;;;;;;4.45;3.55;;;;;;;25.30;49.30;100408.81;5032640;28;20045;-66
2021/06/24 00:26:44;;;;;;;4.95;3.60;;;;;;;25.23;49.48;100413.97;5032222;28;20124;-66
2021/06/24 00:29:11;;;;;;;10.50;3.72;;;;;;;25.22;49.72;100415.00;5028629;28;20041;-66
2021/06/24 00:31:38;;;;;;;11.10;5.65;;;;;;;25.23;49.62;100413.16;5029115;28;20132;-66
2021/06/24 00:34:05;;;;;;;12.57;3.50;;;;;;;25.19;49.72;100411.81;5029108;28;20124;-66
2021/06/24 00:36:32;;;;;;;7.95;3.38;;;;;;;25.16;49.33;100406.84;5042825;28;20061;-66
2021/06/24 00:39:00;;;;;;;10.38;3.95;;;;;;;25.20;49.66;100408.16;5029361;28;20044;-66
2021/06/24 00:41:28;;;;;;;7.75;4.00;;;;;;;25.20;49.48;100408.16;5044505;28;20050;-65
2021/06/24 00:43:55;;;;;;;6.60;4.05;;;;;;;25.15;49.77;100399.84;5029978;28;20037;-66
2021/06/24 00:46:22;;;;;;;7.72;3.35;;;;;;;25.14;49.56;100401.66;5043031;28;20033;-66
2021/06/24 00:48:59;;;;;;;8.18;3.55;;;;;;;25.20;49.40;100398.31;5027453;28;20091;-66
2021/06/24 00:51:27;;;;;;;6.85;3.00;;;;;;;25.15;49.57;100395.31;5043733;28;20485;-62
2021/06/24 00:53:55;;;;;;;7.10;3.88;;;;;;;25.19;49.13;100390.47;5028447;28;20046;-64
2021/06/24 00:56:31;;;;;;;8.43;2.88;;;;;;;25.18;49.45;100383.47;5027354;28;20076;-66
2021/06/24 00:59:03;;;;;;;7.90;2.90;;;;;;;25.15;48.82;100382.00;5028583;28;20429;-64
2021/06/24 01:01:32;;;;;;;5.35;2.83;;;;;;;25.15;49.00;100384.66;5029241;28;20053;-64
2021/06/24 01:04:01;;;;;;;13.18;3.30;;;;;;;25.15;48.83;100383.84;5029678;28;20088;-65
2021/06/24 01:06:28;;;;;;;8.50;3.85;;;;;;;25.10;49.35;100386.16;5028615;28;20107;-65
2021/06/24 01:08:56;;;;;;;4.28;2.90;;;;;;;25.12;49.51;100392.16;5029299;28;20133;-66
2021/06/24 01:11:23;;;;;;;10.95;3.10;;;;;;;25.04;49.77;100388.47;5028650;28;20065;-64
2021/06/24 01:13:51;;;;;;;6.40;3.90;;;;;;;25.00;49.86;100392.47;5027179;28;20052;-65
2021/06/24 01:16:19;;;;;;;9.05;3.60;;;;;;;25.01;49.59;100388.78;5028752;28;20505;-65
2021/06/24 01:18:48;;;;;;;5.40;3.00;;;;;;;24.98;50.26;100383.81;5043673;28;20033;-64
2021/06/24 01:21:16;;;;;;;12.93;4.82;;;;;;;24.92;50.51;100395.09;5043512;28;20050;-64
2021/06/24 01:23:44;;;;;;;7.10;3.75;;;;;;;24.89;50.46;100391.97;5043439;28;20048;-64
2021/06/24 01:26:14;;;;;;;5.90;3.20;;;;;;;24.88;50.57;100396.47;5026896;28;20095;-65
2021/06/24 01:28:42;;;;;;;9.40;3.13;;;;;;;24.85;50.28;100399.44;5029613;28;20099;-65
2021/06/24 01:31:10;;;;;;;8.50;3.72;;;;;;;24.88;50.19;100395.63;5028792;28;20037;-64
2021/06/24 01:33:37;;;;;;;7.70;3.25;;;;;;;24.76;50.15;100390.59;5028466;28;20046;-63
2021/06/24 01:36:06;;;;;;;8.52;4.07;;;;;;;24.78;50.25;100387.78;5026582;28;20546;-65
2021/06/24 01:38:38;;;;;;;8.70;4.97;;;;;;;24.75;49.75;100378.28;5044380;28;20042;-64
2021/06/24 01:41:14;;;;;;;4.88;3.20;;;;;;;24.76;49.83;100377.25;5027226;28;20347;-65
2021/06/24 01:43:42;;;;;;;6.07;2.88;;;;;;;24.75;49.49;100383.59;5042656;28;20128;-66
2021/06/24 01:46:10;;;;;;;8.13;3.90;;;;;;;24.77;49.60;100383.47;5026762;28;20067;-66
2021/06/24 01:48:37;;;;;;;6.57;3.17;;;;;;;24.77;49.90;100378.13;5043733;28;20041;-66
2021/06/24 01:51:05;;;;;;;10.27;3.55;;;;;;;24.72;50.11;100383.94;5027393;28;20045;-66
2021/06/24 01:53:32;;;;;;;4.65;3.15;;;;;;;24.72;50.19;100383.94;5043739;28;20033;-66
2021/06/24 01:56:02;;;;;;;12.35;3.85;;;;;;;24.65;50.79;100379.44;5044775;28;20045;-66
2021/06/24 01:58:33;;;;;;;9.68;3.40;;;;;;;24.67;50.48;100382.78;5027614;28;20551;-66
2021/06/24 02:01:11;;;;;;;9.50;3.70;;;;;;;24.60;50.39;100381.75;5026635;28;20149;-66
2021/06/24 02:03:52;;;;;;;10.68;5.03;;;;;;;24.55;50.64;100379.56;5042500;28;20095;-66
2021/06/24 02:06:20;;;;;;;7.90;4.35;;;;;;;24.46;51.31;100389.41;5041988;28;20060;-66
2021/06/24 02:08:53;;;;;;;7.28;5.20;;;;;;;24.47;51.00;100387.56;5042418;28;20121;-66
2021/06/24 02:11:38;;;;;;;11.30;5.53;;;;;;;24.39;51.38;100395.53;5027180;28;20408;-66
2021/06/24 02:14:07;;;;;;;13.25;5.30;;;;;;;24.38;51.58;100385.88;5026097;28;20049;-66
2021/06/24 02:16:35;;;;;;;9.93;5.40;;;;;;;24.39;51.66;100395.53;5026352;28;20482;-66
2021/06/24 02:19:03;;;;;;;7.32;5.25;;;;;;;24.34;51.89;100392.47;5026117;28;20041;-66
2021/06/24 02:21:57;;;;;;;8.68;7.25;;;;;;;24.31;51.84;100378.50;5042797;28;20420;-66
2021/06/24 02:24:26;;;;;;;15.80;6.07;;;;;;;24.37;51.54;100384.19;5025627;28;20041;-66
2021/06/24 02:26:53;;;;;;;7.68;5.55;;;;;;;24.33;51.93;100388.16;5044927;28;20036;-65
2021/06/24 02:29:38;;;;;;;11.23;5.28;;;;;;;24.21;52.52;100383.13;5028228;28;20056;-66
2021/06/24 02:32:06;;;;;;;9.88;4.88;;;;;;;24.14;52.52;100386.59;5025927;28;20860;-66
2021/06/24 02:34:59;;;;;;;9.45;4.68;;;;;;;24.13;52.74;100382.25;5024293;28;20049;-65
2021/06/24 02:37:55;;;;;;;11.20;4.57;;;;;;;24.14;52.52;100384.78;5014643;28;20405;-66
2021/06/24 02:40:22;;;;;;;10.20;4.82;;;;;;;24.15;52.87;100382.94;5027321;28;20041;-66
2021/06/24 02:42:50;;;;;;;11.55;4.30;;;;;;;24.11;52.94;100379.75;5028159;28;20060;-66
2021/06/24 02:45:19;;;;;;;4.43;3.65;;;;;;;24.14;52.57;100373.28;5042933;28;20045;-66
2021/06/24 02:47:46;;;;;;;6.25;3.88;;;;;;;24.12;52.43;100376.09;5028245;28;20042;-66
2021/06/24 02:50:17;;;;;;;9.90;3.97;;;;;;;24.11;52.44;100373.59;5026715;28;20149;-66
2021/06/24 02:52:45;;;;;;;9.35;4.82;;;;;;;24.13;52.01;100377.78;5042430;28;20060;-66
2021/06/24 02:55:13;;;;;;;7.78;4.10;;;;;;;24.09;52.14;100371.09;5042037;28;20132;-66
2021/06/24 02:57:46;;;;;;;4.93;3.63;;;;;;;24.08;52.70;100379.25;5027433;28;20111;-66
2021/06/24 03:00:32;;;;;;;8.05;4.20;;;;;;;24.03;52.51;100383.22;5025955;28;20044;-66
2021/06/24 03:03:18;;;;;;;9.65;3.70;;;;;;;24.04;52.77;100386.72;5041856;28;20042;-66
2021/06/24 03:06:01;;;;;;;4.72;3.53;;;;;;;24.09;52.44;100388.91;5041945;28;20045;-66
2021/06/24 03:08:28;;;;;;;9.25;3.20;;;;;;;24.05;52.54;100391.88;5041578;28;20500;-66
2021/06/24 03:11:06;;;;;;;5.97;3.38;;;;;;;24.01;52.45;100385.19;5025530;28;20049;-66
2021/06/24 03:13:39;;;;;;;4.85;3.45;;;;;;;24.02;52.45;100384.22;5041610;28;20050;-66
2021/06/24 03:16:07;;;;;;;7.68;3.22;;;;;;;24.03;52.05;100388.56;5041843;28;20118;-66
2021/06/24 03:18:34;;;;;;;7.50;3.30;;;;;;;23.95;52.00;100391.16;5026240;28;20554;-66
2021/06/24 03:21:04;;;;;;;8.10;3.65;;;;;;;23.93;51.94;100389.69;5025318;28;20042;-66
2021/06/24 03:23:33;;;;;;;6.78;3.58;;;;;;;23.93;51.75;100390.50;5041451;28;20046;-66
2021/06/24 03:26:00;;;;;;;8.57;3.22;;;;;;;23.98;51.39;100395.34;5041392;28;20125;-66
2021/06/24 03:28:28;;;;;;;3.50;3.00;;;;;;;23.96;52.05;100386.69;5026091;28;20439;-66
2021/06/24 03:31:02;;;;;;;7.88;3.45;;;;;;;23.95;52.05;100393.00;5026744;28;20049;-65
2021/06/24 03:33:33;;;;;;;8.20;3.40;;;;;;;23.82;52.58;100390.78;5024982;28;20436;-66
2021/06/24 03:36:02;;;;;;;6.35;3.50;;;;;;;23.86;52.12;100381.47;5025371;28;20088;-65
2021/06/24 03:38:30;;;;;;;7.80;3.05;;;;;;;23.85;52.58;100378.97;5040332;28;20092;-66
2021/06/24 03:40:57;;;;;;;8.82;3.00;;;;;;;23.82;52.64;100380.16;5023415;28;20581;-66
2021/06/24 03:43:26;;;;;;;9.15;3.13;;;;;;;23.86;52.85;100378.81;5024677;28;20041;-66
2021/06/24 03:45:53;;;;;;;3.70;2.88;;;;;;;23.84;52.78;100377.31;5025717;28;20120;-66
2021/06/24 03:48:22;;;;;;;8.35;3.22;;;;;;;23.81;52.47;100382.94;5024953;28;20080;-65
2021/06/24 03:51:00;;;;;;;7.03;3.25;;;;;;;23.84;52.06;100382.63;5041238;28;20186;-66
2021/06/24 03:53:27;;;;;;;3.83;2.85;;;;;;;23.81;52.25;100378.47;5024813;28;20079;-65
2021/06/24 03:55:54;;;;;;;9.60;3.35;;;;;;;23.83;52.33;100384.47;5041131;28;20044;-65
2021/06/24 03:58:38;;;;;;;3.78;2.65;;;;;;;23.81;51.98;100388.25;5025359;28;20382;-65
2021/06/24 04:01:06;;;;;;;9.30;4.05;;;;;;;23.86;51.03;100386.78;5025389;28;20053;-65
2021/06/24 04:03:35;;;;;;;5.18;2.95;;;;;;;23.82;51.35;100385.47;5043891;28;20079;-65
2021/06/24 04:06:06;;;;;;;6.13;3.80;;;;;;;23.86;51.13;100386.78;5030522;28;20060;-65
2021/06/24 04:08:34;;;;;;;7.45;3.00;;;;;;;23.85;51.21;100381.63;5045992;28;20092;-65
2021/06/24 04:11:22;;;;;;;8.02;3.38;;;;;;;23.89;50.78;100386.50;5029830;28;20049;-65
2021/06/24 04:14:03;;;;;;;4.78;2.15;;;;;;;23.94;50.59;100392.16;5046029;28;20071;-65
2021/06/24 04:16:50;;;;;;;10.32;4.07;;;;;;;23.91;50.25;100389.81;5029021;28;20077;-65
2021/06/24 04:19:17;;;;;;;7.45;3.28;;;;;;;23.99;50.49;100387.22;5029474;28;20045;-65
2021/06/24 04:21:45;;;;;;;5.95;3.22;;;;;;;24.00;50.48;100386.22;5028005;28;20053;-66
2021/06/24 04:24:12;;;;;;;5.35;2.58;;;;;;;24.08;50.21;100389.91;5028249;28;20044;-65
2021/06/24 04:26:39;;;;;;;4.72;2.50;;;;;;;24.15;50.25;100390.94;5029900;28;20034;-65
2021/06/24 04:29:08;;;;;;;8.52;2.15;;;;;;;24.27;50.14;100393.13;5028270;28;20092;-65
2021/06/24 04:31:35;;;;;;;10.23;2.50;;;;;;;24.34;49.66;100395.97;5044949;28;20124;-65
2021/06/24 04:34:06;;;;;;;6.38;2.75;;;;;;;24.44;49.38;100386.03;5029418;28;20111;-65
2021/06/24 04:36:36;;;;;;;15.23;4.15;;;;;;;24.48;49.29;100390.06;5028749;28;20489;-65
2021/06/24 04:39:07;;;;;;;5.75;2.65;;;;;;;24.60;49.04;100379.91;5030225;28;20045;-65
2021/06/24 04:41:34;;;;;;;7.03;2.58;;;;;;;24.62;49.20;100383.25;5048897;28;20052;-65
2021/06/24 04:44:06;;;;;;;9.48;2.70;;;;;;;24.63;49.31;100387.59;5050594;28;20451;-65
2021/06/24 04:46:34;;;;;;;4.72;2.90;;;;;;;24.66;49.25;100394.41;5035786;28;20053;-63
2021/06/24 04:49:03;;;;;;;10.48;4.40;;;;;;;24.65;49.61;100408.75;5063891;28;20044;-65
2021/06/24 04:51:57;;;;;;;7.80;2.53;;;;;;;24.67;49.79;100401.44;5021223;28;20058;-65
2021/06/24 04:54:36;;;;;;;7.18;2.75;;;;;;;24.71;49.60;100403.59;5050103;28;20103;-66
2021/06/24 04:57:05;;;;;;;4.93;2.35;;;;;;;24.77;49.72;100407.44;5044148;28;20045;-66
2021/06/24 04:59:51;;;;;;;5.05;2.70;;;;;;;24.84;49.64;100408.44;5035346;28;20041;-65
2021/06/24 05:02:37;;;;;;;14.07;3.40;;;;;;;24.85;50.21;100404.78;5034488;28;20064;-66
2021/06/24 05:05:30;;;;;;;8.68;2.97;;;;;;;24.76;50.81;100414.59;5030003;28;20123;-66
2021/06/24 05:08:06;;;;;;;6.68;2.90;;;;;;;25.04;50.47;100411.63;5037057;28;20479;-65
2021/06/24 05:10:32;;;;;;;6.93;3.17;;;;;;;24.95;50.43;100400.13;5044439;28;20105;-66
2021/06/24 05:12:59;;;;;;;12.48;5.63;;;;;;;25.06;50.69;100412.31;5034571;28;20092;-72
2021/06/24 05:15:26;;;;;;;11.25;3.65;;;;;;;25.07;51.28;100400.66;5033849;28;20037;-66
2021/06/24 05:17:54;;;;;;;9.75;3.45;;;;;;;25.37;51.01;100398.31;5034394;28;20068;-65
2021/06/24 05:20:21;;;;;;;16.75;4.85;;;;;;;25.64;49.54;100408.59;5034657;28;20045;-65
2021/06/24 05:22:48;;;;;;;7.40;3.25;;;;;;;25.66;49.28;100416.44;5034385;28;20046;-65
2021/06/24 05:25:15;;;;;;;8.50;4.13;;;;;;;25.64;51.10;100418.44;5034280;28;20037;-64
2021/06/24 05:27:42;;;;;;;11.25;3.67;;;;;;;25.73;50.04;100420.09;5034591;28;20053;-64
2021/06/24 05:30:09;;;;;;;11.30;3.95;;;;;;;25.97;49.18;100421.88;5034454;28;20058;-64
2021/06/24 05:32:36;;;;;;;9.48;4.07;;;;;;;26.19;49.10;100420.28;5034041;28;20049;-65
2021/06/24 05:35:04;;;;;;;10.85;3.90;;;;;;;26.07;48.69;100423.34;5034409;28;20041;-64
2021/06/24 05:37:30;;;;;;;10.90;3.88;;;;;;;26.16;48.31;100428.69;5034024;28;20045;-64
2021/06/24 05:39:57;;;;;;;9.30;4.03;;;;;;;26.33;47.80;100432.94;5033565;28;20477;-62
2021/06/24 05:42:24;;;;;;;16.60;5.32;;;;;;;26.80;46.69;100426.69;5033768;28;20045;-64
2021/06/24 05:44:51;;;;;;;8.82;3.83;;;;;;;27.25;46.76;100422.34;5034307;28;20400;-64
2021/06/24 05:47:18;;;;;;;5.40;3.25;;;;;;;27.55;45.13;100418.72;5045046;28;20064;-63
2021/06/24 05:49:45;;;;;;;12.40;3.58;;;;;;;27.59;44.83;100424.53;5032906;28;20050;-64
2021/06/24 05:52:12;;;;;;;10.18;3.05;;;;;;;28.04;44.28;100431.59;5034230;28;20381;-64
2021/06/24 05:54:39;;;;;;;13.25;3.72;;;;;;;28.24;43.58;100431.88;5033697;28;20048;-63
2021/06/24 05:57:06;;;;;;;5.68;3.58;;;;;;;28.29;43.26;100432.13;5034182;28;20056;-64
2021/06/24 05:59:33;;;;;;;12.60;3.17;;;;;;;28.37;43.38;100439.25;5033713;28;20065;-64
2021/06/24 06:02:00;;;;;;;11.82;3.40;;;;;;;29.01;42.28;100436.69;5034061;28;20132;-64
2021/06/24 06:04:27;;;;;;;13.75;3.30;;;;;;;29.43;41.20;100434.97;5033380;28;20156;-64
2021/06/24 06:06:53;;;;;;;9.10;3.53;;;;;;;29.99;39.67;100432.28;5033717;28;20041;-64
2021/06/24 06:09:20;;;;;;;5.40;2.65;;;;;;;30.18;38.42;100428.88;5033206;28;20489;-65
2021/06/24 06:11:47;;;;;;;7.05;2.55;;;;;;;30.45;37.14;100428.97;5033959;28;20116;-65
2021/06/24 06:14:14;;;;;;;9.73;2.70;;;;;;;30.38;36.68;100428.97;5033347;28;20073;-64
2021/06/24 06:16:44;;;;;;;12.38;2.55;;;;;;;30.91;35.74;100434.50;5033682;28;20444;-64
2021/06/24 06:19:12;;;;;;;6.05;2.90;;;;;;;31.19;34.72;100437.00;5033842;28;20401;-64
2021/06/24 06:21:40;;;;;;;11.20;2.85;;;;;;;31.60;33.83;100437.84;5033249;28;20060;-64
2021/06/24 06:24:07;;;;;;;8.75;2.53;;;;;;;31.93;32.81;100438.63;5029672;28;20048;-64
2021/06/24 06:26:34;;;;;;;5.35;2.35;;;;;;;32.23;32.35;100433.56;5024216;28;20034;-64
2021/06/24 06:29:04;;;;;;;4.95;1.75;;;;;;;32.37;32.26;100438.91;5025323;28;20072;-64
2021/06/24 06:31:33;;;;;;;4.30;2.05;;;;;;;32.75;31.42;100437.03;5026196;28;20052;-64
2021/06/24 06:34:00;;;;;;;8.90;2.83;;;;;;;32.84;30.73;100443.00;5025622;28;20037;-64
2021/06/24 06:36:27;;;;;;;8.32;2.03;;;;;;;32.81;30.73;100441.59;5025477;28;20045;-64
2021/06/24 06:38:54;;;;;;;10.70;2.25;;;;;;;32.99;31.11;100443.56;5025291;28;20168;-64
2021/06/24 06:41:21;;;;;;;11.52;3.25;;;;;;;33.21;30.52;100444.00;5025727;28;20041;-65
2021/06/24 06:43:48;;;;;;;4.25;2.13;;;;;;;33.11;30.82;100444.50;5025513;28;20124;-64
2021/06/24 06:46:15;;;;;;;6.47;2.30;;;;;;;32.69;31.17;100443.31;5025945;28;20400;-64
2021/06/24 06:48:42;;;;;;;6.35;2.72;;;;;;;33.12;30.41;100453.44;5025660;28;20554;-65
2021/06/24 06:51:09;;;;;;;6.18;2.63;;;;;;;33.51;30.69;100448.78;5025981;28;20060;-64
2021/06/24 06:53:36;;;;;;;4.28;2.72;;;;;;;33.66;29.69;100451.94;5024029;28;20057;-64
2021/06/24 06:56:04;;;;;;;10.10;2.30;;;;;;;34.00;29.16;100456.00;5024020;28;20042;-64
2021/06/24 06:58:36;;;;;;;5.27;2.10;;;;;;;34.07;29.36;100451.31;5025870;28;20037;-64
2021/06/24 07:01:03;;;;;;;7.95;2.60;;;;;;;34.24;28.88;100456.94;5025680;28;20037;-64
2021/06/24 07:03:30;;;;;;;9.23;2.88;;;;;;;34.19;28.78;100447.84;5021016;28;20077;-61
2021/06/24 07:05:56;;;;;;;9.25;3.05;;;;;;;34.34;29.20;100454.53;5030799;28;20088;-63
2021/06/24 07:08:24;;;;;;;7.22;2.55;;;;;;;34.40;28.30;100455.50;5032246;28;20041;-62
2021/06/24 07:10:50;;;;;;;9.10;2.30;;;;;;;34.46;27.71;100451.09;5030054;28;20133;-64
2021/06/24 07:13:17;;;;;;;8.02;2.63;;;;;;;34.32;28.58;100459.34;5032115;28;20129;-63
2021/06/24 07:15:44;;;;;;;3.90;2.15;;;;;;;34.18;28.72;100452.44;5047518;28;20484;-62
2021/06/24 07:18:12;;;;;;;5.07;1.70;;;;;;;35.18;27.61;100460.06;5032060;28;20040;-65
2021/06/24 07:20:39;;;;;;;7.95;1.90;;;;;;;35.34;27.61;100458.53;5032051;28;20045;-63
2021/06/24 07:23:06;;;;;;;6.60;3.67;;;;;;;35.74;26.83;100455.13;5034859;28;20475;-64
2021/06/24 07:25:33;;;;;;;7.00;2.60;;;;;;;35.97;26.55;100459.75;5031622;28;20112;-64
2021/06/24 07:28:00;;;;;;;8.35;2.30;;;;;;;35.28;27.44;100471.16;5032410;28;20044;-60
2021/06/24 07:30:27;;;;;;;13.70;3.20;;;;;;;35.92;26.76;100468.56;5031907;28;20121;-63
2021/06/24 07:32:54;;;;;;;9.63;2.97;;;;;;;35.70;26.70;100465.66;5031773;28;20041;-66
2021/06/24 07:35:21;;;;;;;9.60;2.33;;;;;;;35.78;26.53;100470.69;5031635;28;20041;-66
2021/06/24 07:37:49;;;;;;;5.45;2.20;;;;;;;35.80;26.22;100470.50;5033123;28;20045;-62
2021/06/24 07:40:17;;;;;;;10.93;6.75;;;;;;;36.44;25.67;100466.75;5034758;28;20535;-63
2021/06/24 07:42:44;;;;;;;4.90;2.35;;;;;;;36.69;25.02;100469.09;5036041;28;20049;-62
2021/06/24 07:45:12;;;;;;;11.95;2.00;;;;;;;36.97;24.34;100471.00;5036143;28;20061;-62
2021/06/24 07:47:39;;;;;;;9.70;2.63;;;;;;;37.24;24.18;100467.66;5034974;28;20519;-65
2021/06/24 07:50:06;;;;;;;8.48;3.08;;;;;;;37.48;23.44;100471.03;5035385;28;20488;-66
2021/06/24 07:52:33;;;;;;;7.45;3.42;;;;;;;37.58;23.66;100475.78;5035337;28;20515;-63
2021/06/24 07:55:00;;;;;;;5.93;2.38;;;;;;;36.27;24.53;100470.41;5035148;28;20054;-64
2021/06/24 07:57:29;;;;;;;8.05;2.13;;;;;;;36.67;24.53;100471.25;5035110;28;20041;-63
2021/06/24 07:59:56;;;;;;;5.47;2.10;;;;;;;37.29;23.79;100467.72;5035930;28;20393;-65
2021/06/24 08:02:23;;;;;;;14.02;2.67;;;;;;;37.30;24.10;100463.94;5035378;28;20037;-66
2021/06/24 08:04:50;;;;;;;4.75;1.90;;;;;;;37.39;24.41;100458.91;5035438;28;20053;-62
2021/06/24 08:07:18;;;;;;;12.02;4.78;;;;;;;37.67;23.44;100458.00;5034827;28;20063;-64
2021/06/24 08:09:46;;;;;;;6.40;2.08;;;;;;;38.00;23.40;100451.66;5035154;28;20394;-62
2021/06/24 08:12:13;;;;;;;5.72;1.88;;;;;;;38.11;23.47;100449.88;5034914;28;20580;-63
2021/06/24 08:14:40;;;;;;;7.85;2.08;;;;;;;38.07;22.39;100456.91;5050129;28;20137;-61
2021/06/24 08:17:07;;;;;;;5.70;2.72;;;;;;;37.66;23.21;100462.59;5034130;28;20567;-63
2021/06/24 08:19:34;;;;;;;6.88;2.45;;;;;;;38.09;22.59;100454.75;5034986;28;20563;-63
2021/06/24 08:22:01;;;;;;;5.28;2.35;;;;;;;38.20;22.55;100457.34;5034267;28;20141;-62
2021/06/24 08:24:28;;;;;;;40.78;5.00;;;;;;;38.18;22.79;100447.78;5034367;28;20100;-62
2021/06/24 08:26:56;;;;;;;10.30;1.83;;;;;;;38.34;22.64;100462.44;5035016;28;20515;-64
2021/06/24 08:29:23;;;;;;;4.10;1.98;;;;;;;38.19;22.35;100458.44;5034468;28;20048;-65
2021/06/24 08:31:50;;;;;;;6.88;1.83;;;;;;;38.20;22.43;100460.06;5034241;28;20132;-64
2021/06/24 08:34:18;;;;;;;6.43;2.13;;;;;;;38.15;22.40;100456.47;5034054;28;20496;-63
2021/06/24 08:36:45;;;;;;;5.78;2.10;;;;;;;37.90;22.63;100460.50;5035365;28;20072;-61
2021/06/24 08:39:12;;;;;;;9.07;2.28;;;;;;;37.81;22.65;100461.97;5033760;28;20048;-62
2021/06/24 08:41:44;;;;;;;5.70;1.95;;;;;;;37.81;22.68;100461.16;5034811;28;20057;-62
2021/06/24 08:44:11;;;;;;;7.53;2.42;;;;;;;37.50;22.90;100460.72;5034408;28;20471;-60
2021/06/24 08:46:38;;;;;;;13.63;2.60;;;;;;;37.62;23.93;100456.00;5034114;28;20048;-62
2021/06/24 08:49:08;;;;;;;9.13;2.47;;;;;;;37.30;23.44;100444.91;5033013;28;20060;-60
2021/06/24 08:51:36;;;;;;;3.05;1.83;;;;;;;36.83;24.33;100460.66;5046886;28;20097;-64
2021/06/24 08:54:03;;;;;;;5.03;1.85;;;;;;;36.14;25.27;100455.22;5034217;28;20045;-63
2021/06/24 08:56:30;;;;;;;8.88;2.10;;;;;;;36.04;25.30;100450.41;5034204;28;20053;-62
2021/06/24 08:58:57;;;;;;;5.72;2.42;;;;;;;35.78;25.75;100450.91;5037502;28;20033;-62
2021/06/24 09:01:53;;;;;;;8.85;2.50;;;;;;;35.03;25.84;100451.53;5033741;28;20042;-61
2021/06/24 09:04:29;;;;;;;10.20;1.98;;;;;;;35.04;26.64;100450.47;5033431;28;20056;-61
2021/06/24 09:07:10;;;;;;;4.68;2.58;;;;;;;35.31;26.65;100450.88;5031655;28;20037;-63
2021/06/24 09:09:39;;;;;;;8.35;2.67;;;;;;;35.28;26.23;100457.59;5034678;28;20512;-63
2021/06/24 09:12:11;;;;;;;3.38;2.30;;;;;;;34.99;26.23;100459.28;5039392;28;20043;-64
2021/06/24 09:14:48;;;;;;;6.82;1.85;;;;;;;35.07;26.89;100460.88;5036978;28;20468;-64
2021/06/24 09:17:36;;;;;;;7.80;2.15;;;;;;;35.04;26.61;100453.19;5027098;28;20523;-60
2021/06/24 09:20:06;;;;;;;7.70;1.85;;;;;;;35.02;26.66;100458.03;5030573;28;20042;-61
2021/06/24 09:22:33;;;;;;;8.70;2.55;;;;;;;34.98;27.38;100456.81;5032371;28;20049;-62
2021/06/24 09:25:00;;;;;;;5.47;1.95;;;;;;;34.68;27.48;100454.97;5033020;28;20127;-62
2021/06/24 09:27:29;;;;;;;6.97;2.75;;;;;;;34.24;27.97;100451.53;5034166;28;20154;-62
2021/06/24 09:29:59;;;;;;;8.88;2.13;;;;;;;33.70;28.95;100450.44;5034089;28;20053;-61
2021/06/24 09:32:32;;;;;;;7.78;2.25;;;;;;;33.66;28.18;100454.63;5033704;28;20046;-61
2021/06/24 09:35:02;;;;;;;12.43;3.25;;;;;;;33.95;28.37;100444.19;5029488;28;20053;-62
2021/06/24 09:38:04;;;;;;;4.43;2.10;;;;;;;34.03;28.37;100441.19;5029705;28;20053;-63
2021/06/24 09:40:49;;;;;;;7.47;2.40;;;;;;;33.89;28.24;100448.59;5026881;28;20045;-64
2021/06/24 09:43:22;;;;;;;6.57;2.75;;;;;;;33.41;29.21;100457.41;5026916;28;20587;-61
2021/06/24 09:46:00;;;;;;;25.55;3.28;;;;;;;33.77;28.85;100451.22;5027004;28;20056;-61
2021/06/24 09:48:34;;;;;;;8.05;2.00;;;;;;;33.80;29.10;100450.75;5026766;28;20464;-62
2021/06/24 09:51:17;;;;;;;5.63;2.92;;;;;;;33.44;29.13;100451.53;5027116;28;20111;-62
2021/06/24 09:54:01;;;;;;;11.30;2.75;;;;;;;33.59;28.82;100453.88;5026655;28;20123;-61
2021/06/24 09:56:33;;;;;;;11.15;2.80;;;;;;;33.77;28.66;100443.13;5026714;28;20045;-62
2021/06/24 09:59:03;;;;;;;2.63;1.88;;;;;;;33.44;28.17;100446.13;5025757;28;20045;-64
2021/06/24 10:01:34;;;;;;;3.38;2.03;;;;;;;33.10;29.77;100442.03;5025062;28;20700;-62
2021/06/24 10:04:04;;;;;;;6.18;2.83;;;;;;;33.11;29.42;100449.06;5026754;28;20164;-61
2021/06/24 10:06:31;;;;;;;5.85;2.22;;;;;;;33.33;29.30;100439.53;5026695;28;20496;-62
2021/06/24 10:08:58;;;;;;;6.45;2.78;;;;;;;33.24;29.25;100446.28;5026717;28;20037;-63
2021/06/24 10:11:26;;;;;;;5.97;2.70;;;;;;;33.40;29.05;100438.66;5041362;28;20451;-61
2021/06/24 10:13:53;;;;;;;11.02;3.17;;;;;;;33.32;28.86;100442.47;5031332;28;20455;-64
2021/06/24 10:16:26;;;;;;;27.42;4.40;;;;;;;33.13;29.95;100436.16;5032768;28;20566;-63
2021/06/24 10:18:55;;;;;;;7.70;2.20;;;;;;;33.37;29.40;100440.75;5030751;28;20067;-63
2021/06/24 10:21:23;;;;;;;8.30;2.78;;;;;;;33.00;30.22;100436.28;5032922;28;20136;-64
2021/06/24 10:23:56;;;;;;;4.78;2.25;;;;;;;33.15;29.79;100441.38;5030364;28;20052;-62
2021/06/24 10:26:25;;;;;;;9.97;2.50;;;;;;;33.22;29.39;100442.97;5033157;28;20489;-63
2021/06/24 10:29:38;;;;;;;5.10;1.90;;;;;;;33.33;28.99;100433.31;5030827;28;20124;-63
2021/06/24 10:32:22;;;;;;;6.40;2.20;;;;;;;33.18;29.05;100432.81;5008783;28;20136;-63
2021/06/24 10:34:50;;;;;;;4.70;2.17;;;;;;;33.18;28.47;100439.03;5032437;28;20045;-63
2021/06/24 10:37:22;;;;;;;7.88;2.28;;;;;;;33.34;27.82;100432.25;5032824;28;20069;-62
2021/06/24 10:39:51;;;;;;;9.05;2.22;;;;;;;33.38;28.10;100437.00;5032578;28;20068;-63
2021/06/24 10:42:20;;;;;;;9.30;4.00;;;;;;;33.42;28.03;100425.78;5035135;28;20618;-63
2021/06/24 10:44:58;;;;;;;7.53;2.85;;;;;;;33.41;28.16;100416.88;5032380;28;20037;-63
2021/06/24 10:47:29;;;;;;;4.22;2.20;;;;;;;33.13;28.38;100430.75;5032539;28;20048;-61
2021/06/24 10:50:30;;;;;;;8.27;2.00;;;;;;;33.04;29.10;100426.72;5032382;28;20061;-61
2021/06/24 10:52:59;;;;;;;4.68;2.47;;;;;;;32.86;28.88;100425.53;5032239;28;20492;-62
2021/06/24 10:55:42;;;;;;;10.50;2.90;;;;;;;32.90;28.33;100431.38;5047610;28;20408;-62
2021/06/24 10:58:24;;;;;;;9.82;2.67;;;;;;;32.70;28.43;100422.53;5032375;28;20542;-61
2021/06/24 11:00:53;;;;;;;5.88;2.10;;;;;;;32.83;28.70;100420.59;5032377;28;20033;-64
2021/06/24 11:03:32;;;;;;;6.18;2.72;;;;;;;32.76;28.37;100418.97;5033207;28;20037;-64
2021/06/24 11:06:13;;;;;;;4.25;1.80;;;;;;;32.95;28.88;100418.03;5033543;28;20041;-64
2021/06/24 11:08:41;;;;;;;5.53;1.98;;;;;;;32.94;28.36;100412.88;5031256;28;20145;-62
2021/06/24 11:11:10;;;;;;;3.70;2.05;;;;;;;32.91;28.38;100416.00;5031665;28;20038;-62
2021/06/24 11:13:38;;;;;;;6.18;2.03;;;;;;;33.09;28.55;100416.91;5029888;28;20136;-62
2021/06/24 11:16:15;;;;;;;8.75;3.28;;;;;;;33.22;28.78;100418.66;5034801;28;20045;-61
2021/06/24 11:18:46;;;;;;;5.03;2.65;;;;;;;33.21;28.93;100419.69;5031162;28;20034;-61
2021/06/24 11:21:22;;;;;;;9.90;3.08;;;;;;;33.11;29.61;100422.91;5029140;28;20464;-64
2021/06/24 11:23:54;;;;;;;6.22;2.30;;;;;;;33.06;29.33;100411.91;5024061;28;20091;-63
2021/06/24 11:26:24;;;;;;;14.82;2.63;;;;;;;33.00;29.85;100414.69;5024694;28;20042;-63
2021/06/24 11:29:02;;;;;;;7.40;2.35;;;;;;;33.19;29.19;100415.59;5024055;28;20116;-63
2021/06/24 11:31:32;;;;;;;8.95;3.08;;;;;;;33.19;29.27;100411.00;5023379;28;20369;-63
2021/06/24 11:36:30;;;;;;;4.50;2.80;;;;;;;33.08;29.13;100407.16;5025638;28;20507;-63
2021/06/24 11:38:56;;;;;;;6.75;2.78;;;;;;;32.86;29.72;100411.22;5031487;28;20038;-64
2021/06/24 11:41:24;;;;;;;4.60;2.47;;;;;;;33.02;29.46;100404.47;5032448;28;20064;-64
2021/06/24 11:43:58;;;;;;;7.68;2.63;;;;;;;33.13;29.25;100400.22;5031545;28;20045;-62